createdAt,value
2022-11-01T00:01:22.231Z,101107.06
2022-11-01T00:03:48.592Z,101107.22
2022-11-01T00:06:14.893Z,101101.38
2022-11-01T00:08:41.217Z,101092.72
2022-11-01T00:11:08.376Z,101091.22
2022-11-01T00:13:34.681Z,101097.72
2022-11-01T00:16:01.013Z,101094.19
2022-11-01T00:18:27.337Z,101107.97
2022-11-01T00:20:53.664Z,101122.28
2022-11-01T00:23:20.012Z,101119.31
2022-11-01T00:25:46.324Z,101105.00
2022-11-01T00:28:12.652Z,101111.41
2022-11-01T00:30:39.179Z,101113.56
2022-11-01T00:33:05.510Z,101112.03
2022-11-01T00:35:31.916Z,101103.50
2022-11-01T00:37:58.537Z,101098.31
2022-11-01T00:40:24.941Z,101094.75
2022-11-01T00:42:51.261Z,101087.59
2022-11-01T00:45:17.676Z,101075.25
2022-11-01T00:47:43.983Z,101083.22
2022-11-01T00:50:10.294Z,101068.06
2022-11-01T00:52:36.620Z,101080.34
2022-11-01T00:55:02.924Z,101070.03
2022-11-01T00:57:29.237Z,101062.22
2022-11-01T00:59:55.547Z,101062.81
2022-11-01T01:02:21.937Z,101058.50
2022-11-01T01:04:49.096Z,101058.50
2022-11-01T01:07:15.399Z,101048.47
2022-11-01T01:09:41.713Z,101054.25
2022-11-01T01:12:08.035Z,101047.16
2022-11-01T01:14:34.372Z,101057.97
2022-11-01T01:17:00.755Z,101056.44
2022-11-01T01:19:28.147Z,101069.50
2022-11-01T01:21:54.467Z,101074.41
2022-11-01T01:24:20.777Z,101083.06
2022-11-01T01:26:47.096Z,101084.44
2022-11-01T01:29:13.426Z,101072.91
2022-11-01T01:31:39.746Z,101080.09
2022-11-01T01:34:06.291Z,101077.31
2022-11-01T01:36:32.607Z,101068.56
2022-11-01T01:38:58.953Z,101059.19
2022-11-01T01:41:43.775Z,101056.31
2022-11-01T01:44:28.716Z,101039.56
2022-11-01T01:46:55.028Z,101029.50
2022-11-01T01:49:21.359Z,101026.72
2022-11-01T01:51:47.686Z,101013.72
2022-11-01T01:54:14.002Z,101017.97
2022-11-01T01:56:40.315Z,101009.34
2022-11-01T01:59:07.104Z,101006.44
2022-11-01T02:01:33.980Z,101005.72
2022-11-01T02:04:00.363Z,100994.94
2022-11-01T02:06:26.698Z,100991.41
2022-11-01T02:08:53.556Z,100987.78
2022-11-01T02:11:19.892Z,100981.94
2022-11-01T02:13:46.205Z,100974.69
2022-11-01T02:16:15.039Z,100979.03
2022-11-01T02:18:41.273Z,100976.16
2022-11-01T02:21:18.697Z,100973.28
2022-11-01T02:23:44.940Z,100971.72
2022-11-01T02:26:19.505Z,100963.06
2022-11-01T02:28:50.846Z,100968.56
2022-11-01T02:31:26.595Z,100958.59
2022-11-01T02:33:54.948Z,100951.47
2022-11-01T02:36:47.494Z,100945.69
2022-11-01T02:39:20.256Z,100955.81
2022-11-01T02:41:51.086Z,100954.44
2022-11-01T02:44:18.841Z,100955.81
2022-11-01T02:47:03.423Z,100956.53
2022-11-01T02:49:34.251Z,100950.06
2022-11-01T02:52:00.572Z,100950.88
2022-11-01T02:54:47.107Z,100960.19
2022-11-01T02:57:26.333Z,100965.03
2022-11-01T02:59:52.665Z,100967.25
2022-11-01T03:02:21.247Z,100973.78
2022-11-01T03:04:47.564Z,100968.66
2022-11-01T03:07:13.920Z,100966.50
2022-11-01T03:09:40.283Z,100971.53
2022-11-01T03:12:06.998Z,100970.03
2022-11-01T03:14:39.672Z,100970.13
2022-11-01T03:17:07.607Z,100971.53
2022-11-01T03:19:50.326Z,100969.22
2022-11-01T03:22:35.458Z,100974.31
2022-11-01T03:25:37.247Z,100974.31
2022-11-01T03:28:08.151Z,100978.69
2022-11-01T03:30:34.480Z,100970.63
2022-11-01T03:33:01.054Z,100971.34
2022-11-01T03:35:29.019Z,100975.47
2022-11-01T03:37:56.542Z,100971.00
2022-11-01T03:40:23.444Z,100968.38
2022-11-01T03:42:50.128Z,100964.22
2022-11-01T03:45:17.018Z,100954.25
2022-11-01T03:47:43.373Z,100942.91
2022-11-01T03:50:17.008Z,100950.22
2022-11-01T03:52:43.360Z,100941.75
2022-11-01T03:55:18.677Z,100945.38
2022-11-01T03:57:48.696Z,100951.88
2022-11-01T04:00:15.510Z,100942.69
2022-11-01T04:02:43.129Z,100947.53
2022-11-01T04:05:10.204Z,100937.47
2022-11-01T04:07:36.513Z,100947.53
2022-11-01T04:10:02.835Z,100943.97
2022-11-01T04:12:29.154Z,100959.97
2022-11-01T04:15:14.315Z,100959.22
2022-11-01T04:17:59.160Z,100968.63
2022-11-01T04:20:34.408Z,100977.91
2022-11-01T04:23:01.740Z,100967.78
2022-11-01T04:25:28.272Z,100972.22
2022-11-01T04:27:57.659Z,100954.66
2022-11-01T04:30:24.272Z,100951.78
2022-11-01T04:32:50.576Z,100947.63
2022-11-01T04:35:16.903Z,100959.22
2022-11-01T04:37:43.213Z,100957.72
2022-11-01T04:40:09.849Z,100958.47
2022-11-01T04:42:36.353Z,100965.06
2022-11-01T04:45:03.004Z,100958.56
2022-11-01T04:47:29.317Z,100954.75
2022-11-01T04:49:55.641Z,100936.00
2022-11-01T04:52:21.996Z,100942.50
2022-11-01T04:54:48.308Z,100944.66
2022-11-01T04:57:24.250Z,100944.56
2022-11-01T04:59:53.950Z,100939.53
2022-11-01T05:02:20.569Z,100929.50
2022-11-01T05:04:46.952Z,100922.97
2022-11-01T05:07:13.502Z,100917.88
2022-11-01T05:09:39.903Z,100899.09
2022-11-01T05:12:06.261Z,100883.94
2022-11-01T05:14:32.612Z,100918.44
2022-11-01T05:16:58.925Z,100899.78
2022-11-01T05:19:25.242Z,100898.91
2022-11-01T05:21:51.553Z,100895.31
2022-11-01T05:24:17.888Z,100889.63
2022-11-01T05:26:44.444Z,100891.03
2022-11-01T05:29:24.444Z,100895.31
2022-11-01T05:31:57.051Z,100895.13
2022-11-01T05:34:23.374Z,100900.88
2022-11-01T05:36:49.704Z,100895.13
2022-11-01T05:39:16.019Z,100913.91
2022-11-01T05:41:42.345Z,100912.59
2022-11-01T05:44:08.668Z,100893.91
2022-11-01T05:46:34.992Z,100912.66
2022-11-01T05:49:01.328Z,100925.44
2022-11-01T05:51:27.653Z,100941.22
2022-11-01T05:53:53.968Z,100944.59
2022-11-01T05:56:20.300Z,100932.22
2022-11-01T05:58:46.649Z,100924.56
2022-11-01T06:01:13.051Z,100928.69
2022-11-01T06:03:39.461Z,100928.59
2022-11-01T06:06:05.836Z,100917.56
2022-11-01T06:08:32.191Z,100924.63
2022-11-01T06:11:02.823Z,100922.34
2022-11-01T06:13:29.933Z,100897.06
2022-11-01T06:15:59.796Z,100896.16
2022-11-01T06:18:26.117Z,100906.38
2022-11-01T06:20:52.666Z,100909.00
2022-11-01T06:23:18.989Z,100911.88
2022-11-01T06:25:45.346Z,100916.59
2022-11-01T06:28:11.678Z,100912.28
2022-11-01T06:30:41.373Z,100920.94
2022-11-01T06:33:09.430Z,100919.31
2022-11-01T06:35:35.770Z,100927.44
2022-11-01T06:38:06.722Z,100932.13
2022-11-01T06:40:36.521Z,100931.50
2022-11-01T06:43:03.716Z,100917.97
2022-11-01T06:45:30.513Z,100930.25
2022-11-01T06:47:56.849Z,100915.66
2022-11-01T06:50:23.205Z,100919.56
2022-11-01T06:52:49.536Z,100926.22
2022-11-01T06:55:15.882Z,100927.72
2022-11-01T06:57:42.209Z,100937.44
2022-11-01T07:00:09.292Z,100940.66
2022-11-01T07:02:35.811Z,100928.38
2022-11-01T07:05:02.219Z,100938.16
2022-11-01T07:07:28.544Z,100935.13
2022-11-01T07:09:54.860Z,100936.50
2022-11-01T07:12:21.177Z,100944.59
2022-11-01T07:14:47.523Z,100959.56
2022-11-01T07:17:13.859Z,100949.53
2022-11-01T07:19:40.189Z,100940.78
2022-11-01T07:22:06.658Z,100953.78
2022-11-01T07:24:32.998Z,100961.06
2022-11-01T07:26:59.313Z,100973.25
2022-11-01T07:29:25.634Z,100983.00
2022-11-01T07:31:51.955Z,100989.69
2022-11-01T07:34:18.272Z,100979.13
2022-11-01T07:36:44.587Z,100991.41
2022-11-01T07:39:10.916Z,100993.81
2022-11-01T07:41:37.221Z,101020.03
2022-11-01T07:44:03.787Z,101027.22
2022-11-01T07:46:30.866Z,101013.72
2022-11-01T07:48:57.243Z,101007.78
2022-11-01T07:51:23.555Z,101010.47
2022-11-01T07:53:49.921Z,101009.75
2022-11-01T07:56:16.303Z,101000.50
2022-11-01T07:58:43.569Z,100991.63
2022-11-01T08:01:10.646Z,100993.00
2022-11-01T08:03:37.151Z,101016.25
2022-11-01T08:06:03.475Z,100999.44
2022-11-01T08:08:29.791Z,100998.78
2022-11-01T08:10:56.092Z,101007.25
2022-11-01T08:13:23.036Z,101000.09
2022-11-01T08:15:49.527Z,100994.41
2022-11-01T08:18:16.192Z,100982.16
2022-11-01T08:20:42.556Z,101003.06
2022-11-01T08:23:08.884Z,101000.44
2022-11-01T08:25:35.233Z,101022.19
2022-11-01T08:28:05.218Z,101016.09
2022-11-01T08:30:31.611Z,101007.94
2022-11-01T08:33:01.600Z,101021.41
2022-11-01T08:35:28.247Z,101007.19
2022-11-01T08:37:54.561Z,101011.63
2022-11-01T08:40:24.001Z,101005.84
2022-11-01T08:42:50.469Z,101018.78
2022-11-01T08:45:16.922Z,101011.63
2022-11-01T08:47:43.240Z,101010.16
2022-11-01T08:50:11.266Z,101015.16
2022-11-01T08:52:37.859Z,101015.91
2022-11-01T08:55:04.269Z,101025.94
2022-11-01T08:57:30.580Z,101005.78
2022-11-01T08:59:56.892Z,101011.63
2022-11-01T09:02:23.325Z,101009.38
2022-11-01T09:04:49.711Z,101026.13
2022-11-01T09:07:16.018Z,101017.47
2022-11-01T09:09:42.327Z,101018.94
2022-11-01T09:12:12.361Z,101006.69
2022-11-01T09:14:40.713Z,101000.34
2022-11-01T09:17:07.020Z,101011.13
2022-11-01T09:19:33.327Z,100998.22
2022-11-01T09:21:59.700Z,100997.47
2022-11-01T09:24:26.007Z,100984.34
2022-11-01T09:26:52.365Z,100992.44
2022-11-01T09:29:18.923Z,100998.84
2022-11-01T09:31:45.242Z,101023.88
2022-11-01T09:34:12.031Z,101023.34
2022-11-01T09:36:38.397Z,101031.97
2022-11-01T09:39:04.724Z,101036.09
2022-11-01T09:41:35.557Z,101038.78
2022-11-01T09:44:02.177Z,101047.44
2022-11-01T09:46:31.190Z,101052.53
2022-11-01T09:48:58.820Z,101043.16
2022-11-01T09:51:25.692Z,101043.78
2022-11-01T09:53:53.037Z,101052.06
2022-11-01T09:56:24.396Z,101049.94
2022-11-01T09:59:09.484Z,101058.56
2022-11-01T10:01:48.376Z,101056.44
2022-11-01T10:04:21.312Z,101043.41
2022-11-01T10:07:11.107Z,101060.72
2022-11-01T10:09:41.417Z,101060.91
2022-11-01T10:12:10.318Z,101044.91
2022-11-01T10:14:54.645Z,101041.91
2022-11-01T10:17:24.854Z,101029.66
2022-11-01T10:20:00.432Z,101031.72
2022-11-01T10:22:33.989Z,101033.94
2022-11-01T10:25:07.775Z,101021.69
2022-11-01T10:27:44.001Z,101027.34
2022-11-01T10:30:14.586Z,101040.44
2022-11-01T10:32:40.873Z,101052.06
2022-11-01T10:35:12.196Z,101066.66
2022-11-01T10:37:51.888Z,101078.72
2022-11-01T10:40:30.196Z,101083.25
2022-11-01T10:42:57.702Z,101081.03
2022-11-01T10:45:24.258Z,101079.97
2022-11-01T10:47:54.066Z,101072.72
2022-11-01T10:50:24.168Z,101073.03
2022-11-01T10:53:03.256Z,101075.25
2022-11-01T10:55:31.606Z,101068.75
2022-11-01T10:58:15.143Z,101075.00
2022-11-01T11:00:41.728Z,101063.53
2022-11-01T11:03:12.758Z,101072.38
2022-11-01T11:05:39.105Z,101089.59
2022-11-01T11:08:07.342Z,101083.16
2022-11-01T11:10:33.711Z,101081.78
2022-11-01T11:13:01.195Z,101088.44
2022-11-01T11:15:35.585Z,101092.59
2022-11-01T11:18:02.187Z,101089.34
2022-11-01T11:20:30.429Z,101093.41
2022-11-01T11:22:56.986Z,101092.16
2022-11-01T11:25:27.295Z,101103.38
2022-11-01T11:27:53.674Z,101090.00
2022-11-01T11:30:26.984Z,101091.81
2022-11-01T11:32:53.839Z,101091.81
2022-11-01T11:35:20.581Z,101099.09
2022-11-01T11:37:50.920Z,101099.25
2022-11-01T11:40:26.865Z,101093.41
2022-11-01T11:42:56.635Z,101094.06
2022-11-01T11:45:27.296Z,101090.50
2022-11-01T11:47:53.941Z,101097.09
2022-11-01T11:50:20.548Z,101091.41
2022-11-01T11:52:50.462Z,101107.91
2022-11-01T11:55:32.101Z,101112.97
2022-11-01T11:57:58.469Z,101105.84
2022-11-01T12:00:24.986Z,101107.19
2022-11-01T12:02:51.388Z,101117.31
2022-11-01T12:05:18.425Z,101111.75
2022-11-01T12:07:45.342Z,101111.38
2022-11-01T12:10:28.888Z,101101.91
2022-11-01T12:12:56.823Z,101097.75
2022-11-01T12:15:38.438Z,101088.00
2022-11-01T12:18:25.646Z,101099.63
2022-11-01T12:20:52.000Z,101110.94
2022-11-01T12:23:26.625Z,101105.34
2022-11-01T12:25:52.979Z,101097.75
2022-11-01T12:28:25.068Z,101104.97
2022-11-01T12:30:51.465Z,101102.16
2022-11-01T12:33:27.850Z,101105.19
2022-11-01T12:35:57.093Z,101112.44
2022-11-01T12:38:28.683Z,101117.56
2022-11-01T12:40:55.034Z,101119.69
2022-11-01T12:43:22.759Z,101112.09
2022-11-01T12:45:52.039Z,101120.22
2022-11-01T12:48:47.889Z,101121.41
2022-11-01T12:51:20.681Z,101121.50
2022-11-01T12:53:59.279Z,101117.75
2022-11-01T12:56:25.799Z,101113.47
2022-11-01T12:58:52.736Z,101125.34
2022-11-01T13:01:24.609Z,101125.41
2022-11-01T13:04:08.165Z,101115.25
2022-11-01T13:06:48.318Z,101113.47
2022-11-01T13:09:26.070Z,101118.41
2022-11-01T13:11:59.947Z,101117.91
2022-11-01T13:14:39.061Z,101123.41
2022-11-01T13:17:09.578Z,101113.91
2022-11-01T13:19:44.966Z,101113.78
2022-11-01T13:22:17.328Z,101131.84
2022-11-01T13:25:04.941Z,101130.97
2022-11-01T13:27:44.546Z,101123.69
2022-11-01T13:30:14.359Z,101128.28
2022-11-01T13:32:55.908Z,101119.22
2022-11-01T13:35:34.497Z,101129.94
2022-11-01T13:38:19.245Z,101131.50
2022-11-01T13:40:51.533Z,101118.97
2022-11-01T13:43:19.592Z,101121.69
2022-11-01T13:45:50.206Z,101124.31
2022-11-01T13:48:23.119Z,101123.25
2022-11-01T13:50:52.488Z,101128.63
2022-11-01T13:53:32.104Z,101137.03
2022-11-01T13:56:02.834Z,101123.41
2022-11-01T13:58:29.149Z,101132.81
2022-11-01T14:00:56.198Z,101140.56
2022-11-01T14:03:32.620Z,101138.91
2022-11-01T14:06:08.310Z,101135.47
2022-11-01T14:08:37.400Z,101133.09
2022-11-01T14:11:03.769Z,101143.22
2022-11-01T14:13:34.415Z,101148.34
2022-11-01T14:16:01.455Z,101149.28
2022-11-01T14:18:27.785Z,101152.16
2022-11-01T14:20:54.610Z,101150.75
2022-11-01T14:23:31.396Z,101156.63
2022-11-01T14:26:16.709Z,101152.06
2022-11-01T14:28:43.280Z,101156.53
2022-11-01T14:31:09.654Z,101155.97
2022-11-01T14:33:35.968Z,101156.88
2022-11-01T14:36:02.351Z,101154.53
2022-11-01T14:38:31.870Z,101155.88
2022-11-01T14:40:58.800Z,101162.56
2022-11-01T14:43:44.068Z,101163.03
2022-11-01T14:46:14.283Z,101162.66
2022-11-01T14:48:51.417Z,101169.75
2022-11-01T14:51:25.140Z,101168.59
2022-11-01T14:54:13.571Z,101167.34
2022-11-01T14:56:41.349Z,101178.41
2022-11-01T14:59:11.259Z,101176.91
2022-11-01T15:01:42.104Z,101178.66
2022-11-01T15:04:11.443Z,101175.59
2022-11-01T15:06:39.929Z,101175.84
2022-11-01T15:09:06.310Z,101178.81
2022-11-01T15:11:33.528Z,101170.88
2022-11-01T15:14:01.129Z,101180.16
2022-11-01T15:16:28.699Z,101179.88
2022-11-01T15:18:56.269Z,101179.81
2022-11-01T15:21:25.751Z,101175.34
2022-11-01T15:23:55.760Z,101176.50
2022-11-01T15:26:23.747Z,101175.00
2022-11-01T15:28:57.594Z,101175.06
2022-11-01T15:31:23.904Z,101187.31
2022-11-01T15:33:51.850Z,101194.03
2022-11-01T15:36:23.192Z,101188.69
2022-11-01T15:38:50.971Z,101191.91
2022-11-01T15:42:07.731Z,101199.00
2022-11-01T15:44:34.051Z,101203.38
2022-11-01T15:47:00.942Z,101199.00
2022-11-01T15:49:28.676Z,101201.72
2022-11-01T15:51:59.612Z,101196.34
2022-11-01T15:54:47.841Z,101204.75
2022-11-01T15:57:21.161Z,101207.16
2022-11-01T16:00:01.104Z,101201.56
2022-11-01T16:02:32.155Z,101203.53
2022-11-01T16:04:58.563Z,101203.03
2022-11-01T16:07:24.900Z,101201.88
2022-11-01T16:09:52.452Z,101213.28
2022-11-01T16:12:31.958Z,101203.38
2022-11-01T16:14:58.756Z,101213.78
2022-11-01T16:17:26.085Z,101201.28
2022-11-01T16:19:52.738Z,101218.59
2022-11-01T16:22:33.339Z,101208.16
2022-11-01T16:25:03.580Z,101226.66
2022-11-01T16:27:29.991Z,101216.56
2022-11-01T16:29:56.327Z,101213.69
2022-11-01T16:32:23.363Z,101221.78
2022-11-01T16:34:49.685Z,101227.56
2022-11-01T16:37:25.628Z,101225.50
2022-11-01T16:39:52.155Z,101229.59
2022-11-01T16:42:18.983Z,101230.25
2022-11-01T16:44:45.499Z,101238.91
2022-11-01T16:47:14.985Z,101242.44
2022-11-01T16:49:45.038Z,101251.56
2022-11-01T16:52:11.352Z,101257.09
2022-11-01T16:54:37.681Z,101263.50
2022-11-01T16:57:04.013Z,101267.13
2022-11-01T16:59:32.702Z,101261.72
2022-11-01T17:01:59.140Z,101268.16
2022-11-01T17:04:26.846Z,101266.84
2022-11-01T17:06:53.204Z,101276.53
2022-11-01T17:09:22.671Z,101275.03
2022-11-01T17:11:51.813Z,101286.22
2022-11-01T17:14:18.450Z,101281.00
2022-11-01T17:16:46.177Z,101280.88
2022-11-01T17:19:17.335Z,101286.13
2022-11-01T17:21:44.185Z,101296.81
2022-11-01T17:24:10.509Z,101290.69
2022-11-01T17:26:37.369Z,101296.00
2022-11-01T17:29:03.716Z,101296.31
2022-11-01T17:31:30.391Z,101300.22
2022-11-01T17:33:56.802Z,101309.50
2022-11-01T17:36:23.115Z,101302.41
2022-11-01T17:38:50.277Z,101312.47
2022-11-01T17:41:18.008Z,101309.59
2022-11-01T17:43:44.337Z,101313.88
2022-11-01T17:46:13.906Z,101314.06
2022-11-01T17:48:40.228Z,101316.66
2022-11-01T17:51:06.700Z,101317.25
2022-11-01T17:53:33.087Z,101310.16
2022-11-01T17:55:59.401Z,101312.41
2022-11-01T17:58:25.763Z,101315.19
2022-11-01T18:00:52.225Z,101317.97
2022-11-01T18:03:18.681Z,101317.88
2022-11-01T18:05:44.990Z,101318.53
2022-11-01T18:08:17.856Z,101316.31
2022-11-01T18:10:55.285Z,101319.94
2022-11-01T18:13:33.778Z,101330.66
2022-11-01T18:16:05.324Z,101321.91
2022-11-01T18:18:34.939Z,101340.59
2022-11-01T18:21:08.195Z,101327.69
2022-11-01T18:23:34.594Z,101328.22
2022-11-01T18:26:00.940Z,101327.56
2022-11-01T18:28:27.669Z,101333.44
2022-11-01T18:30:54.832Z,101331.94
2022-11-01T18:33:27.846Z,101327.56
2022-11-01T18:35:55.916Z,101331.78
2022-11-01T18:38:25.172Z,101337.72
2022-11-01T18:40:56.746Z,101335.50
2022-11-01T18:43:23.519Z,101332.53
2022-11-01T18:46:19.178Z,101340.50
2022-11-01T18:48:37.343Z,101332.94
2022-11-01T18:51:05.775Z,101341.69
2022-11-01T18:53:32.529Z,101348.88
2022-11-01T18:56:11.564Z,101353.22
2022-11-01T18:58:38.248Z,101347.44
2022-11-01T19:01:33.793Z,101354.81
2022-11-01T19:04:10.973Z,101357.53
2022-11-01T19:06:37.289Z,101359.56
2022-11-01T19:09:14.171Z,101360.53
2022-11-01T19:11:40.494Z,101366.06
2022-11-01T19:14:08.989Z,101360.19
2022-11-01T19:16:36.101Z,101350.50
2022-11-01T19:19:02.440Z,101348.66
2022-11-01T19:21:31.900Z,101352.72
2022-11-01T19:23:58.240Z,101343.59
2022-11-01T19:26:35.342Z,101348.38
2022-11-01T19:29:06.184Z,101347.28
2022-11-01T19:31:33.152Z,101349.91
2022-11-01T19:34:00.705Z,101366.91
2022-11-01T19:36:45.323Z,101364.53
2022-11-01T19:39:17.264Z,101363.19
2022-11-01T19:41:44.851Z,101363.72
2022-11-01T19:44:16.565Z,101375.63
2022-11-01T19:46:42.914Z,101375.72
2022-11-01T19:49:24.845Z,101369.16
2022-11-01T19:51:56.867Z,101367.38
2022-11-01T19:54:23.200Z,101368.84
2022-11-01T19:56:50.012Z,101372.13
2022-11-01T19:59:16.350Z,101372.03
2022-11-01T20:01:45.247Z,101368.22
2022-11-01T20:04:27.001Z,101386.78
2022-11-01T20:06:55.151Z,101387.56
2022-11-01T20:09:22.460Z,101382.91
2022-11-01T20:11:48.913Z,101388.19
2022-11-01T20:14:15.249Z,101391.00
2022-11-01T20:16:41.558Z,101394.44
2022-11-01T20:19:08.985Z,101392.50
2022-11-01T20:21:37.023Z,101393.88
2022-11-01T20:24:03.947Z,101388.75
2022-11-01T20:26:30.579Z,101387.38
2022-11-01T20:28:57.093Z,101390.16
2022-11-01T20:31:25.675Z,101387.91
2022-11-01T20:33:52.759Z,101398.81
2022-11-01T20:36:19.193Z,101401.69
2022-11-01T20:38:45.959Z,101406.81
2022-11-01T20:41:12.995Z,101403.09
2022-11-01T20:43:39.378Z,101404.47
2022-11-01T20:46:05.705Z,101404.47
2022-11-01T20:48:32.069Z,101403.09
2022-11-01T20:51:01.558Z,101408.84
2022-11-01T20:53:29.913Z,101408.84
2022-11-01T20:55:56.405Z,101395.91
2022-11-01T20:58:22.761Z,101400.09
2022-11-01T21:00:50.210Z,101399.34
2022-11-01T21:03:17.600Z,101403.53
2022-11-01T21:05:44.409Z,101407.91
2022-11-01T21:08:10.656Z,101404.25
2022-11-01T21:10:37.519Z,101400.00
2022-11-01T21:13:07.296Z,101401.47
2022-11-01T21:15:34.076Z,101396.44
2022-11-01T21:18:09.600Z,101401.47
2022-11-01T21:20:36.513Z,101392.19
2022-11-01T21:23:13.156Z,101395.91
2022-11-01T21:25:39.473Z,101393.50
2022-11-01T21:28:12.178Z,101403.16
2022-11-01T21:30:38.640Z,101396.84
2022-11-01T21:33:13.475Z,101392.56
2022-11-01T21:35:40.938Z,101382.44
2022-11-01T21:38:25.860Z,101391.81
2022-11-01T21:40:52.353Z,101382.91
2022-11-01T21:43:23.022Z,101381.41
2022-11-01T21:45:49.359Z,101395.81
2022-11-01T21:48:35.911Z,101395.81
2022-11-01T21:51:02.273Z,101398.81
2022-11-01T21:53:28.624Z,101405.97
2022-11-01T21:55:54.941Z,101404.66
2022-11-01T21:58:21.912Z,101397.97
2022-11-01T22:00:48.244Z,101413.22
2022-11-01T22:03:14.571Z,101404.66
2022-11-01T22:05:40.871Z,101401.47
2022-11-01T22:08:07.205Z,101395.81
2022-11-01T22:10:33.587Z,101393.66
2022-11-01T22:13:06.362Z,101392.19
2022-11-01T22:15:33.050Z,101387.91
2022-11-01T22:17:59.380Z,101387.81
2022-11-01T22:20:25.701Z,101399.34
2022-11-01T22:22:52.086Z,101394.44
2022-11-01T22:25:18.387Z,101387.16
2022-11-01T22:27:44.709Z,101394.03
2022-11-01T22:30:11.194Z,101392.56
2022-11-01T22:32:37.528Z,101396.81
2022-11-01T22:35:03.856Z,101398.31
2022-11-01T22:37:30.382Z,101395.13
2022-11-01T22:39:56.698Z,101400.34
2022-11-01T22:42:23.248Z,101401.84
2022-11-01T22:44:49.584Z,101398.31
2022-11-01T22:47:23.787Z,101394.03
2022-11-01T22:49:51.233Z,101396.28
2022-11-01T22:52:26.884Z,101396.28
2022-11-01T22:54:53.503Z,101396.72
2022-11-01T22:57:23.475Z,101395.22
2022-11-01T22:59:56.288Z,101393.63
2022-11-01T23:02:22.877Z,101394.94
2022-11-01T23:04:49.327Z,101394.41
2022-11-01T23:07:20.793Z,101393.63
2022-11-01T23:09:47.134Z,101393.72
2022-11-01T23:12:37.326Z,101392.34
2022-11-01T23:15:03.737Z,101405.38
2022-11-01T23:17:32.304Z,101403.69
2022-11-01T23:20:00.282Z,101393.56
2022-11-01T23:22:29.694Z,101394.28
2022-11-01T23:24:56.011Z,101382.88
2022-11-01T23:27:23.861Z,101382.28
2022-11-01T23:29:50.890Z,101386.59
2022-11-01T23:32:17.196Z,101392.44
2022-11-01T23:34:44.327Z,101385.06
2022-11-01T23:37:18.261Z,101388.72
2022-11-01T23:39:44.588Z,101398.22
2022-11-01T23:42:14.428Z,101390.66
2022-11-01T23:44:40.780Z,101393.63
2022-11-01T23:47:15.230Z,101393.56
2022-11-01T23:49:41.553Z,101392.03
2022-11-01T23:52:11.672Z,101393.56
2022-11-01T23:54:41.975Z,101396.44
2022-11-01T23:57:12.137Z,101399.94
2022-11-01T23:59:39.167Z,101394.19
